Flight Track Log - Related Links

Times and Time Zones

All times are in EDT time to prevent confusion due to time zone crossing. See the N185PF flight status page for this flight to view local times or setup timezone preferences in your user account.

Time Position Orientation Groundspeed Altitude Reporting Facility
EDT Latitude Longitude Course Direction KTS MPH feet Rate Location/Type
Wed 09:00:00 AM 43.8167 -97.7344 97° East  Level Estimated
Wed 09:01:00 AM 43.8038 -97.6859 110° East  Level FlightAware Approximate
Wed 09:01:27 AM 43.7589 -97.9253 106° East 83 96 3,800  Level Minneapolis Center
Wed 09:02:00 AM 43.8109 -97.6352 100° East  Level Estimated
Wed 09:02:29 AM 43.7544 -97.8803 98° East 95 109 4,700  Level Minneapolis Center
Wed 09:03:00 AM 43.8009 -97.5855 105° East  Level FlightAware Approximate
Wed 09:03:31 AM 43.7506 -97.8447 99° East 95 109 4,900  Level Minneapolis Center
Wed 09:04:00 AM 43.7910 -97.5357 106° East  Level FlightAware Approximate
Wed 09:04:32 AM 43.7472 -97.7981 96° East 105 121 4,900  Level Minneapolis Center
Wed 09:05:00 AM 43.7809 -97.4860 106° East  Level FlightAware Approximate
Wed 09:05:34 AM 43.7422 -97.7506 98° East 116 133 4,900  Level Minneapolis Center
Wed 09:06:00 AM 43.7709 -97.4363 106° East  Level FlightAware Approximate
Wed 09:06:36 AM 43.7383 -97.7014 96° East 122 140 4,900  Level Minneapolis Center
Wed 09:07:37 AM 43.7328 -97.6539 99° East 125 144 4,900 49 Level Minneapolis Center
Wed 09:08:39 AM 43.7283 -97.6072 97° East 124 143 5,000  Climbing Minneapolis Center
Wed 09:09:40 AM 43.7242 -97.5500 96° East 125 144 4,900 -49 Descending Minneapolis Center
Wed 09:10:42 AM 43.7206 -97.5014 96° East 126 145 4,900 48 Level Minneapolis Center
Wed 09:11:44 AM 43.7167 -97.4533 96° East 126 145 5,000 49 Climbing Minneapolis Center
Wed 09:12:45 AM 43.7125 -97.4044 97° East 127 146 5,000  Level Minneapolis Center
Wed 09:13:47 AM 43.7089 -97.3544 96° East 129 148 5,000 -49 Level Minneapolis Center
Wed 09:14:48 AM 43.7058 -97.3053 95° East 129 148 4,900 -49 Descending Minneapolis Center
Wed 09:15:50 AM 43.7000 -97.2536 99° East 132 152 4,900  Level Minneapolis Center
Wed 09:16:51 AM 43.6936 -97.2042 100° East 132 152 4,900  Level Minneapolis Center
Wed 09:17:53 AM 43.6856 -97.1433 100° East 133 153 4,900  Level Minneapolis Center
Wed 09:18:55 AM 43.6794 -97.0933 100° East 133 153 4,900  Level Minneapolis Center
Wed 09:19:56 AM 43.6744 -97.0439 98° East 132 152 4,900  Level Minneapolis Center
Wed 09:20:58 AM 43.6689 -96.9933 99° East 132 152 4,900  Level Minneapolis Center
Wed 09:21:59 AM 43.6644 -96.9417 97° East 134 154 4,900  Level Minneapolis Center
Wed 09:23:01 AM 43.6594 -96.8906 98° East 135 155 4,900  Level Minneapolis Center
Wed 09:24:02 AM 43.6544 -96.8403 98° East 134 154 4,900  Level Minneapolis Center
Wed 09:25:04 AM 43.6492 -96.7769 97° East 136 157 4,900 48 Level Minneapolis Center
Wed 09:26:06 AM 43.6497 -96.7236 89° East 138 159 5,000 49 Climbing Minneapolis Center
Wed 09:27:07 AM 43.6506 -96.6722 89° East 137 158 5,000  Level Minneapolis Center
Wed 09:28:09 AM 43.6500 -96.6186 91° East 138 159 5,000  Level Minneapolis Center
Wed 09:29:10 AM 43.6506 -96.5647 89° East 139 160 5,000 -49 Level Minneapolis Center
Wed 09:30:12 AM 43.6492 -96.5114 92° East 140 161 4,900 -49 Descending Minneapolis Center
Wed 09:31:13 AM 43.6497 -96.4561 89° East 142 163 4,900  Level Minneapolis Center
Wed 09:32:15 AM 43.6517 -96.3903 88° East 143 165 4,900  Level Minneapolis Center
Wed 09:33:16 AM 43.6511 -96.3339 91° East 144 166 4,900  Level Minneapolis Center
Wed 09:34:18 AM 43.6508 -96.2764 90° East 147 169 4,900  Level Minneapolis Center
Wed 09:35:19 AM 43.6500 -96.2172 91° East 150 173 4,900 49 Level Minneapolis Center
Wed 09:36:21 AM 43.6500 -96.1581 90° East 153 176 5,000  Climbing Minneapolis Center
Wed 09:37:23 AM 43.6506 -96.0983 89° East 155 178 4,900 -49 Descending Minneapolis Center
Wed 09:38:24 AM 43.6500 -96.0394 91° East 155 178 4,900  Level Minneapolis Center
Wed 09:39:26 AM 43.6481 -95.9692 92° East 154 177 4,900  Level Minneapolis Center
Wed 09:40:27 AM 43.6472 -95.9125 91° East 152 175 4,900  Level Minneapolis Center
Wed 09:41:29 AM 43.6461 -95.8567 92° East 149 171 4,900  Level Minneapolis Center
Wed 09:42:30 AM 43.6444 -95.8014 92° East 147 169 4,900  Level Minneapolis Center
Wed 09:43:32 AM 43.6458 -95.7458 88° East 146 168 4,900  Level Minneapolis Center
Wed 09:44:34 AM 43.6450 -95.6900 91° East 146 168 4,900  Level Minneapolis Center
Wed 09:45:35 AM 43.6425 -95.6344 94° East 145 167 4,900 -49 Level Minneapolis Center
Wed 09:46:37 AM 43.6450 -95.5667 87° East 147 169 4,800  Descending Minneapolis Center
Wed 09:47:38 AM 43.6633 -95.5122 65° Northeast 152 175 4,900 49 Climbing Minneapolis Center
Wed 09:48:40 AM 43.6817 -95.4583 65° Northeast 154 177 4,900  Level Minneapolis Center
Wed 09:49:42 AM 43.7006 -95.4047 64° Northeast 155 178 4,900  Level Minneapolis Center
Wed 09:50:43 AM 43.7208 -95.3522 62° Northeast 155 178 4,900  Level Minneapolis Center
Wed 09:51:45 AM 43.7414 -95.2989 62° Northeast 156 180 4,900  Level Minneapolis Center
Wed 09:52:46 AM 43.7614 -95.2436 63° Northeast 158 182 4,900  Level Minneapolis Center
Wed 09:53:48 AM 43.7844 -95.1789 64° Northeast 158 182 4,900  Level Minneapolis Center
Wed 09:54:50 AM 43.8039 -95.1256 63° Northeast 157 181 4,900  Level Minneapolis Center
Wed 09:55:51 AM 43.8258 -95.0711 61° Northeast 159 183 4,900  Level Minneapolis Center
Wed 09:56:53 AM 43.8461 -95.0164 63° Northeast 160 184 4,900  Level Minneapolis Center
Wed 09:57:55 AM 43.8658 -94.9625 63° Northeast 159 183 4,900  Level Minneapolis Center
Wed 09:58:56 AM 43.8839 -94.9069 66° East 159 183 4,900  Level Minneapolis Center
Wed 09:59:58 AM 43.9064 -94.8500 61° Northeast 159 183 4,900 48 Level Minneapolis Center
Wed 10:01:00 AM 43.9256 -94.8003 62° Northeast 157 181 5,000  Climbing Minneapolis Center
Wed 10:02:01 AM 43.9492 -94.7447 59° Northeast 155 178 4,900 -49 Descending Minneapolis Center
Wed 10:03:03 AM 43.9653 -94.6903 68° East 158 182 4,900  Level Minneapolis Center
Wed 10:04:05 AM 43.9875 -94.6269 64° Northeast 155 178 4,900  Level Minneapolis Center
Wed 10:05:06 AM 44.0061 -94.5742 64° Northeast 153 176 4,900  Level Minneapolis Center
Wed 10:06:08 AM 44.0222 -94.5225 67° East 154 177 4,900  Level Minneapolis Center
Wed 10:07:10 AM 44.0414 -94.4697 63° Northeast 153 176 4,900  Level Minneapolis Center
Wed 10:08:11 AM 44.0611 -94.4067 66° East 150 173 4,900  Level Minneapolis Center
Wed 10:09:13 AM 44.0778 -94.3600 64° Northeast 153 176 4,900  Level Minneapolis Center
Wed 10:10:15 AM 44.0961 -94.3053 65° Northeast 156 180 4,900  Level Minneapolis Center
Wed 10:11:16 AM 44.1186 -94.2408 64° Northeast 155 178 4,900  Level Minneapolis Center
Wed 10:12:18 AM 44.1381 -94.1878 63° Northeast 154 177 4,900  Level Minneapolis Center
Wed 10:13:20 AM 44.1544 -94.1353 66° East 150 173 4,900  Level Minneapolis Center
Wed 10:14:21 AM 44.1714 -94.0822 66° East 149 171 4,900 -49 Level Minneapolis Center
Wed 10:15:23 AM 44.1889 -94.0294 65° Northeast 149 171 4,800  Descending Minneapolis Center
Wed 10:16:25 AM 44.2031 -93.9747 70° East 150 173 4,900 49 Climbing Minneapolis Center
Wed 10:17:26 AM 44.2164 -93.9203 71° East 149 171 4,900  Level Minneapolis Center
Wed 10:18:28 AM 44.2292 -93.8556 75° East 144 166 4,900 48 Level Minneapolis Center
Wed 10:19:30 AM 44.2375 -93.7997 78° East 146 168 5,000 48 Climbing Minneapolis Center
Wed 10:20:32 AM 44.2464 -93.7464 77° East 142 163 5,000 -194 Level Minneapolis Center
Wed 10:21:34 AM 44.2567 -93.6922 75° East 146 168 4,600 -439 Descending Minneapolis Center
Wed 10:22:35 AM 44.2683 -93.6331 75° East 156 180 4,100 -488 Descending Minneapolis Center
Wed 10:23:37 AM 44.2803 -93.5731 74° East 160 184 3,600 -532 Descending Minneapolis Center
Wed 10:24:39 AM 44.2958 -93.5022 73° East 160 184 3,000 -435 Descending Minneapolis Center
Wed 10:25:41 AM 44.3069 -93.4439 75° East 158 182 2,700 -290 Descending Minneapolis Center
Wed 10:26:43 AM 44.3142 -93.3867 80° East 152 175 2,400 -339 Descending Minneapolis Center
Wed 10:27:45 AM 44.3183 -93.3331 84° East 146 168 2,000 -194 Descending Minneapolis Center
Wed 10:28:47 AM 44.3353 -93.3003 54° Northeast 135 155 2,000 -290 Level Minneapolis Center
Wed 10:29:49 AM 44.3514 -93.3114 334° Northwest 102 117 1,400 -387 Descending Minneapolis Center
Wed 10:30:51 AM 44.3353 -93.3169 194° South 77 89 1,200 -77 Descending Minneapolis Center
Wed 10:32:25 AM 44.3167 -93.3333 212° Southwest 58 67 1,200  Level Minneapolis TRACON
Wed 10:34:25 AM 44.3167 -93.3333 216° Southwest 58 67 1,200  Level Minneapolis TRACON

Login

Don't have an account? Register now (free) for customized features, flight alerts, and more!